Time;durP1;ratioP1;P1;durP2;ratioP2;P2;SDS_P1;SDS_P2;PMS_P1;PMS_P2;Temp;Humidity;BMP_temperature;BMP_pressure;BME280_temperature;BME280_humidity;BME280_pressure;Samples;Min_cycle;Max_cycle;Signal;HPM_P1;HPM_P2
2023/10/05 00:01:24;;;;;;;8.43;4.53;;;13.10;99.90;;;;;;5025023;28;21104;-69
2023/10/05 00:03:51;;;;;;;8.10;4.77;;;13.10;99.90;;;;;;5025078;28;20209;-69
2023/10/05 00:06:23;;;;;;;7.93;4.67;;;13.10;99.90;;;;;;5024783;28;20217;-69
2023/10/05 00:08:52;;;;;;;7.00;4.93;;;13.00;99.90;;;;;;5024641;28;20886;-69
2023/10/05 00:11:24;;;;;;;7.60;4.57;;;13.00;99.90;;;;;;5024287;28;20232;-69
2023/10/05 00:13:54;;;;;;;6.93;4.80;;;13.10;99.90;;;;;;5024977;28;20224;-69
2023/10/05 00:16:21;;;;;;;10.23;4.40;;;13.00;99.90;;;;;;5024529;28;20232;-69
2023/10/05 00:18:50;;;;;;;5.23;4.33;;;13.10;99.90;;;;;;5024478;28;20327;-69
2023/10/05 00:21:19;;;;;;;5.83;4.03;;;13.10;99.90;;;;;;5024555;28;20252;-69
2023/10/05 00:23:50;;;;;;;8.40;4.77;;;13.00;99.90;;;;;;5024234;28;20220;-71
2023/10/05 00:26:20;;;;;;;7.77;4.80;;;13.00;99.90;;;;;;5024840;28;20255;-69
2023/10/05 00:29:00;;;;;;;8.17;4.63;;;13.00;99.90;;;;;;5024435;28;20720;-69
2023/10/05 00:31:29;;;;;;;6.00;4.23;;;13.00;99.90;;;;;;5024391;28;20669;-68
2023/10/05 00:33:58;;;;;;;8.23;4.73;;;13.00;99.90;;;;;;5024304;28;20295;-68
2023/10/05 00:36:32;;;;;;;6.17;4.30;;;13.00;99.90;;;;;;5024851;28;20239;-68
2023/10/05 00:39:02;;;;;;;7.93;4.53;;;13.00;99.90;;;;;;5023745;28;20212;-69
2023/10/05 00:41:29;;;;;;;5.53;4.43;;;13.00;99.90;;;;;;5027191;28;20209;-69
2023/10/05 00:43:56;;;;;;;6.60;4.50;;;13.00;99.90;;;;;;5027935;28;20205;-69
2023/10/05 00:46:23;;;;;;;6.00;4.50;;;13.00;99.90;;;;;;5027296;28;20839;-68
2023/10/05 00:49:00;;;;;;;6.90;4.43;;;13.00;99.90;;;;;;5027277;28;20620;-69
2023/10/05 00:51:31;;;;;;;7.07;4.20;;;12.90;99.90;;;;;;5027823;28;20208;-69
2023/10/05 00:54:03;;;;;;;5.27;4.10;;;12.90;99.90;;;;;;5027935;28;20288;-69
2023/10/05 00:56:34;;;;;;;6.73;4.57;;;12.90;99.90;;;;;;5027649;28;20311;-69
2023/10/05 00:59:06;;;;;;;6.47;4.03;;;12.90;99.90;;;;;;5027068;28;20717;-68
2023/10/05 01:01:54;;;;;;;5.60;4.27;;;12.90;99.90;;;;;;5027661;28;20300;-69
2023/10/05 01:04:28;;;;;;;4.67;3.90;;;12.90;99.90;;;;;;5026967;28;20200;-69
2023/10/05 01:07:07;;;;;;;9.63;4.23;;;12.90;99.90;;;;;;5026906;28;20232;-69
2023/10/05 01:09:55;;;;;;;5.73;3.93;;;12.90;99.90;;;;;;5027210;28;20210;-69
2023/10/05 01:12:34;;;;;;;6.40;3.80;;;13.00;99.90;;;;;;5027491;28;20290;-69
2023/10/05 01:15:05;;;;;;;6.53;4.00;;;13.00;99.90;;;;;;5027267;28;20208;-69
2023/10/05 01:17:32;;;;;;;6.57;4.57;;;13.00;99.90;;;;;;5027095;28;20278;-69
2023/10/05 01:20:12;;;;;;;6.87;4.00;;;13.00;99.90;;;;;;5026784;28;20436;-69
2023/10/05 01:22:40;;;;;;;6.90;4.33;;;13.00;99.90;;;;;;5027018;28;20201;-69
2023/10/05 01:25:12;;;;;;;5.90;4.20;;;13.00;99.90;;;;;;5026887;28;20211;-70
2023/10/05 01:27:40;;;;;;;7.63;4.40;;;13.00;99.90;;;;;;5027091;28;20813;-69
2023/10/05 01:30:08;;;;;;;4.70;4.00;;;13.10;99.90;;;;;;5027037;28;20208;-69
2023/10/05 01:32:35;;;;;;;8.10;4.13;;;13.00;99.90;;;;;;5026603;28;20201;-69
2023/10/05 01:35:08;;;;;;;7.83;4.07;;;12.90;99.90;;;;;;5027019;28;20658;-69
2023/10/05 01:37:36;;;;;;;7.20;4.03;;;12.90;99.90;;;;;;5026696;28;20227;-68
2023/10/05 01:40:11;;;;;;;5.67;3.67;;;12.90;99.90;;;;;;5026760;28;20217;-67
2023/10/05 01:42:43;;;;;;;6.70;3.90;;;12.90;99.90;;;;;;5026806;28;20200;-68
2023/10/05 01:45:15;;;;;;;6.73;4.23;;;12.90;99.90;;;;;;5026888;28;20426;-68
2023/10/05 01:47:43;;;;;;;5.87;4.07;;;12.90;99.90;;;;;;5026196;28;20259;-68
2023/10/05 01:50:16;;;;;;;6.87;3.73;;;12.90;99.90;;;;;;5025897;28;20239;-68
2023/10/05 01:52:45;;;;;;;6.90;3.40;;;12.90;99.90;;;;;;5026375;28;20683;-68
2023/10/05 01:55:14;;;;;;;5.93;4.00;;;12.90;99.90;;;;;;5026420;28;20208;-68
2023/10/05 01:57:44;;;;;;;7.20;3.97;;;13.00;99.90;;;;;;5026754;28;20271;-68
2023/10/05 02:00:15;;;;;;;6.57;3.60;;;13.00;99.90;;;;;;5026710;28;20266;-69
2023/10/05 02:02:42;;;;;;;8.20;3.57;;;13.00;99.90;;;;;;5025519;28;20243;-69
2023/10/05 02:05:10;;;;;;;6.60;3.13;;;13.00;99.90;;;;;;5026773;28;20248;-69
2023/10/05 02:07:38;;;;;;;6.47;3.53;;;13.00;99.90;;;;;;5026324;28;20272;-69
2023/10/05 02:10:09;;;;;;;4.80;3.57;;;13.00;99.90;;;;;;5026393;28;20753;-70
2023/10/05 02:12:36;;;;;;;5.83;3.50;;;13.00;99.90;;;;;;5014027;28;20193;-70
2023/10/05 02:15:12;;;;;;;7.87;3.67;;;13.00;99.90;;;;;;5026376;28;20263;-70
2023/10/05 02:17:42;;;;;;;6.97;3.73;;;13.00;99.90;;;;;;5025933;28;20235;-70
2023/10/05 02:20:25;;;;;;;7.13;4.13;;;12.90;99.90;;;;;;5025922;28;20298;-70
2023/10/05 02:22:54;;;;;;;6.33;3.70;;;12.90;99.90;;;;;;5025938;28;20193;-70
2023/10/05 02:25:25;;;;;;;6.43;3.63;;;13.00;99.90;;;;;;5025827;28;20474;-70
2023/10/05 02:27:52;;;;;;;6.17;3.73;;;13.00;99.90;;;;;;5025818;28;20635;-70
2023/10/05 02:30:27;;;;;;;6.97;3.93;;;13.00;99.90;;;;;;5026163;28;20608;-70
2023/10/05 02:32:58;;;;;;;8.60;4.03;;;12.90;99.90;;;;;;5025609;28;20291;-70
2023/10/05 02:35:29;;;;;;;8.83;3.73;;;13.00;99.90;;;;;;5025220;28;20848;-70
2023/10/05 02:37:58;;;;;;;7.17;4.13;;;13.00;99.90;;;;;;5025832;28;20227;-68
2023/10/05 02:40:35;;;;;;;5.60;3.60;;;13.00;99.90;;;;;;5025205;28;20256;-68
2023/10/05 02:43:07;;;;;;;7.53;3.07;;;13.00;99.90;;;;;;5025431;28;20721;-68
2023/10/05 02:45:37;;;;;;;4.63;3.47;;;12.90;99.90;;;;;;5025289;28;20667;-68
2023/10/05 02:48:05;;;;;;;7.60;3.87;;;13.00;99.90;;;;;;5025196;28;20200;-69
2023/10/05 02:50:37;;;;;;;6.30;3.50;;;13.00;99.90;;;;;;5025361;28;20234;-69
2023/10/05 02:53:06;;;;;;;6.80;3.90;;;12.90;99.90;;;;;;5025565;28;20231;-69
2023/10/05 02:55:36;;;;;;;4.70;3.70;;;12.90;99.90;;;;;;5025360;28;20215;-69
2023/10/05 02:58:04;;;;;;;8.43;3.90;;;12.90;99.90;;;;;;5025192;28;20240;-68
2023/10/05 03:00:33;;;;;;;6.93;4.43;;;12.90;99.90;;;;;;5024663;28;20216;-67
2023/10/05 03:03:04;;;;;;;7.80;3.57;;;12.90;99.90;;;;;;5025346;28;20208;-68
2023/10/05 03:05:35;;;;;;;6.30;3.70;;;12.90;99.90;;;;;;5025096;28;20229;-69
2023/10/05 03:08:04;;;;;;;5.93;3.23;;;12.90;99.90;;;;;;5024880;28;20241;-69
2023/10/05 03:10:31;;;;;;;5.17;3.30;;;12.90;99.90;;;;;;5025308;28;20497;-69
2023/10/05 03:12:58;;;;;;;6.23;3.47;;;12.90;99.90;;;;;;5025402;28;20242;-69
2023/10/05 03:15:27;;;;;;;7.40;3.97;;;12.90;99.90;;;;;;5024992;28;20201;-69
2023/10/05 03:17:56;;;;;;;5.07;3.40;;;13.00;99.90;;;;;;5025399;28;20229;-69
2023/10/05 03:20:25;;;;;;;7.53;4.37;;;12.90;99.90;;;;;;5024970;28;20264;-69
2023/10/05 03:22:55;;;;;;;6.77;3.87;;;12.90;99.90;;;;;;5023652;28;20251;-68
2023/10/05 03:25:23;;;;;;;10.43;3.80;;;12.80;99.90;;;;;;5008366;28;20204;-69
2023/10/05 03:27:50;;;;;;;8.20;3.30;;;12.90;99.90;;;;;;5025258;28;20217;-69
2023/10/05 03:30:17;;;;;;;7.37;3.37;;;12.90;99.90;;;;;;5025207;28;20201;-69
2023/10/05 03:32:48;;;;;;;6.83;3.47;;;12.90;99.90;;;;;;5024703;28;20212;-69
2023/10/05 03:35:22;;;;;;;7.03;3.37;;;12.90;99.90;;;;;;5024511;28;20643;-69
2023/10/05 03:37:50;;;;;;;5.43;3.40;;;12.90;99.90;;;;;;5024571;28;20235;-69
2023/10/05 03:40:22;;;;;;;7.27;3.40;;;12.90;99.90;;;;;;5025146;28;20299;-69
2023/10/05 03:42:57;;;;;;;9.00;3.80;;;12.90;99.90;;;;;;5005389;28;20193;-69
2023/10/05 03:45:24;;;;;;;6.57;3.30;;;12.80;99.90;;;;;;5017268;28;20604;-69
2023/10/05 03:47:53;;;;;;;6.30;3.70;;;12.80;99.90;;;;;;5024682;28;20204;-69
2023/10/05 03:50:21;;;;;;;7.10;3.40;;;12.80;99.90;;;;;;5025258;28;20212;-69
2023/10/05 03:52:48;;;;;;;5.23;3.23;;;12.80;99.90;;;;;;5024809;28;20236;-69
2023/10/05 03:55:18;;;;;;;9.37;3.87;;;12.80;99.90;;;;;;5024734;28;20343;-69
2023/10/05 03:57:46;;;;;;;6.47;3.53;;;12.80;99.90;;;;;;5024883;28;20722;-69
2023/10/05 04:00:31;;;;;;;7.73;3.97;;;12.80;99.90;;;;;;5024608;28;20299;-70
2023/10/05 04:02:58;;;;;;;7.27;3.50;;;12.80;99.90;;;;;;5024636;28;20279;-69
2023/10/05 04:05:25;;;;;;;7.30;3.90;;;12.80;99.90;;;;;;5024594;28;20238;-69
2023/10/05 04:07:53;;;;;;;5.70;3.60;;;12.80;99.90;;;;;;5024368;28;20668;-69
2023/10/05 04:10:34;;;;;;;5.37;3.60;;;12.80;99.90;;;;;;5024272;28;20307;-69
2023/10/05 04:13:00;;;;;;;4.60;3.53;;;12.80;99.90;;;;;;5027513;28;20197;-69
2023/10/05 04:15:29;;;;;;;6.17;3.70;;;12.90;99.90;;;;;;5028430;28;20208;-69
2023/10/05 04:17:56;;;;;;;6.13;3.50;;;12.90;99.90;;;;;;5028511;28;20236;-69
2023/10/05 04:20:28;;;;;;;7.93;3.67;;;12.90;99.90;;;;;;5028257;28;20304;-69
2023/10/05 04:22:55;;;;;;;7.33;4.03;;;12.80;99.90;;;;;;5027941;28;20204;-70
2023/10/05 04:25:23;;;;;;;7.60;4.40;;;12.80;99.90;;;;;;5028288;28;20563;-70
2023/10/05 04:27:51;;;;;;;6.60;3.57;;;12.80;99.90;;;;;;5027942;28;20217;-70
2023/10/05 04:30:21;;;;;;;7.17;3.93;;;12.90;99.90;;;;;;5028589;28;20213;-69
2023/10/05 04:32:48;;;;;;;6.60;3.73;;;12.90;99.90;;;;;;5028866;28;20205;-69
2023/10/05 04:35:23;;;;;;;6.03;4.03;;;12.90;99.90;;;;;;5028442;28;20208;-69
2023/10/05 04:37:51;;;;;;;7.60;4.03;;;12.90;99.90;;;;;;5020468;28;20247;-69
2023/10/05 04:40:19;;;;;;;8.37;4.20;;;12.80;99.90;;;;;;5025756;28;20209;-70
2023/10/05 04:42:47;;;;;;;5.53;3.90;;;12.90;99.90;;;;;;5027915;28;20216;-69
2023/10/05 04:45:15;;;;;;;5.97;3.83;;;12.90;99.90;;;;;;5027070;28;20680;-70
2023/10/05 04:47:42;;;;;;;7.00;3.80;;;12.90;99.90;;;;;;5027804;28;20216;-69
2023/10/05 04:50:13;;;;;;;9.73;4.67;;;12.80;99.90;;;;;;5027568;28;20205;-69
2023/10/05 04:52:40;;;;;;;7.30;4.40;;;12.90;99.90;;;;;;5027286;28;20231;-70
2023/10/05 04:55:18;;;;;;;6.83;3.60;;;12.80;99.90;;;;;;5027121;28;20817;-70
2023/10/05 04:57:55;;;;;;;6.60;4.03;;;12.80;99.90;;;;;;5027890;28;20307;-70
2023/10/05 05:03:33;;;;;;;6.83;4.17;;;12.70;99.90;;;;;;5027279;28;20339;-69
2023/10/05 05:06:10;;;;;;;5.40;3.73;;;12.70;99.90;;;;;;5027098;28;20632;-69
2023/10/05 05:08:38;;;;;;;7.17;3.73;;;12.70;99.90;;;;;;5027275;28;20351;-69
2023/10/05 05:11:11;;;;;;;8.90;4.23;;;12.70;99.90;;;;;;5027813;28;20212;-69
2023/10/05 05:13:40;;;;;;;6.83;3.60;;;12.70;99.90;;;;;;5027866;28;20197;-69
2023/10/05 05:16:07;;;;;;;4.27;3.57;;;12.80;99.90;;;;;;5027321;28;20197;-70
2023/10/05 05:18:37;;;;;;;7.03;3.97;;;12.80;99.90;;;;;;5027113;28;20264;-70
2023/10/05 05:21:07;;;;;;;7.53;3.63;;;12.80;99.90;;;;;;5027900;28;20209;-69
2023/10/05 05:23:35;;;;;;;9.37;4.13;;;12.80;99.90;;;;;;5027049;28;20219;-70
2023/10/05 05:26:03;;;;;;;6.43;3.90;;;12.70;99.90;;;;;;5027556;28;20220;-70
2023/10/05 05:28:30;;;;;;;8.33;3.77;;;12.70;99.90;;;;;;5027061;28;20296;-70
2023/10/05 05:31:06;;;;;;;8.00;4.30;;;12.70;99.90;;;;;;5027016;28;20204;-70
2023/10/05 05:33:36;;;;;;;7.77;3.90;;;12.70;99.90;;;;;;5027340;28;20205;-69
2023/10/05 05:36:07;;;;;;;8.70;4.27;;;12.70;99.90;;;;;;5027022;28;20283;-69
2023/10/05 05:38:35;;;;;;;8.13;4.10;;;12.70;99.90;;;;;;5026650;28;20303;-70
2023/10/05 05:41:04;;;;;;;6.57;3.70;;;12.80;99.90;;;;;;5026839;28;20379;-69
2023/10/05 05:43:33;;;;;;;8.43;4.20;;;12.80;99.90;;;;;;5027157;28;20209;-70
2023/10/05 05:46:02;;;;;;;7.43;4.60;;;12.80;99.90;;;;;;5026897;28;20240;-70
2023/10/05 05:48:31;;;;;;;7.17;4.40;;;12.80;99.90;;;;;;5026728;28;20318;-70
2023/10/05 05:51:04;;;;;;;6.73;4.00;;;12.80;99.90;;;;;;5026819;28;20219;-70
2023/10/05 05:53:31;;;;;;;5.83;3.67;;;12.80;99.90;;;;;;5026917;28;20209;-69
2023/10/05 05:56:01;;;;;;;9.83;4.10;;;12.80;99.90;;;;;;5026221;28;20236;-70
2023/10/05 05:58:28;;;;;;;7.40;3.90;;;12.90;99.90;;;;;;5026384;28;20228;-70
2023/10/05 06:00:56;;;;;;;7.57;4.17;;;12.90;99.90;;;;;;5026766;28;20236;-69
2023/10/05 06:03:25;;;;;;;6.03;4.10;;;12.90;99.90;;;;;;5026494;28;20304;-69
2023/10/05 06:05:53;;;;;;;6.87;4.10;;;12.90;99.90;;;;;;5026869;28;20212;-69
2023/10/05 06:08:19;;;;;;;8.50;4.00;;;12.90;99.90;;;;;;5026270;28;20335;-69
2023/10/05 06:10:47;;;;;;;5.97;3.90;;;12.90;99.90;;;;;;5026589;28;20270;-69
2023/10/05 06:13:14;;;;;;;6.07;3.67;;;13.00;99.90;;;;;;5026558;28;20288;-69
2023/10/05 06:15:41;;;;;;;10.17;4.30;;;13.00;99.90;;;;;;5026402;28;20299;-69
2023/10/05 06:18:08;;;;;;;7.27;4.33;;;13.00;99.90;;;;;;5025854;28;20267;-69
2023/10/05 06:20:37;;;;;;;6.90;4.03;;;13.10;99.90;;;;;;5026103;28;20680;-69
2023/10/05 06:23:05;;;;;;;7.37;4.13;;;13.10;99.90;;;;;;5025929;28;20217;-69
2023/10/05 06:25:32;;;;;;;8.33;4.07;;;13.10;99.90;;;;;;5025227;28;20200;-68
2023/10/05 06:27:59;;;;;;;9.30;4.27;;;13.10;99.90;;;;;;5025607;28;20693;-69
2023/10/05 06:30:26;;;;;;;7.97;4.27;;;13.20;99.90;;;;;;5025380;28;20307;-69
2023/10/05 06:32:54;;;;;;;8.30;4.20;;;13.20;99.90;;;;;;5025559;28;20308;-69
2023/10/05 06:35:21;;;;;;;8.87;3.90;;;13.30;99.90;;;;;;5024527;28;20193;-69
2023/10/05 06:37:50;;;;;;;7.13;4.23;;;13.30;99.90;;;;;;5025151;28;20205;-69
2023/10/05 06:40:22;;;;;;;8.83;4.37;;;13.40;99.90;;;;;;5025438;28;20591;-69
2023/10/05 06:42:49;;;;;;;8.60;4.10;;;13.50;99.90;;;;;;5026051;28;20220;-70
2023/10/05 06:45:17;;;;;;;8.37;4.40;;;13.50;99.90;;;;;;5025674;28;20235;-70
2023/10/05 06:47:44;;;;;;;7.40;4.07;;;13.60;99.90;;;;;;5025000;28;20621;-70
2023/10/05 06:50:11;;;;;;;10.23;4.30;;;13.60;99.90;;;;;;5025011;28;20663;-69
2023/10/05 06:52:39;;;;;;;7.10;4.10;;;13.70;99.90;;;;;;5024998;28;20329;-69
2023/10/05 06:55:09;;;;;;;6.10;3.73;;;13.70;99.90;;;;;;5005676;28;20213;-68
2023/10/05 06:57:37;;;;;;;10.93;4.27;;;13.80;99.90;;;;;;5005983;28;20641;-69
2023/10/05 07:00:11;;;;;;;9.70;3.30;;;13.80;99.90;;;;;;5005724;28;20247;-69
2023/10/05 07:02:39;;;;;;;5.60;4.00;;;13.80;99.90;;;;;;5005851;28;20823;-69
2023/10/05 07:05:07;;;;;;;7.80;4.00;;;13.80;99.90;;;;;;5005944;28;20209;-69
2023/10/05 07:07:34;;;;;;;5.80;3.47;;;13.80;99.90;;;;;;5005398;28;20263;-70
2023/10/05 07:10:03;;;;;;;7.60;3.67;;;13.90;99.90;;;;;;5005491;28;20587;-70
2023/10/05 07:12:32;;;;;;;6.47;3.53;;;13.90;99.90;;;;;;5005674;28;20626;-69
2023/10/05 07:14:59;;;;;;;6.10;3.80;;;13.90;99.90;;;;;;5020233;28;20205;-69
2023/10/05 07:17:26;;;;;;;7.93;4.10;;;14.00;99.90;;;;;;5025172;28;20285;-70
2023/10/05 07:19:54;;;;;;;7.33;3.73;;;14.00;99.90;;;;;;5025493;28;20239;-70
2023/10/05 07:22:22;;;;;;;4.63;3.63;;;14.10;99.90;;;;;;5011208;28;20204;-70
2023/10/05 07:24:49;;;;;;;9.03;3.87;;;14.10;99.90;;;;;;5025443;28;20207;-70
2023/10/05 07:27:16;;;;;;;6.23;4.07;;;14.10;99.90;;;;;;5025088;28;20308;-69
2023/10/05 07:29:45;;;;;;;9.33;4.10;;;14.10;99.90;;;;;;5025156;28;20665;-69
2023/10/05 07:32:13;;;;;;;7.40;3.67;;;14.10;99.90;;;;;;5024755;28;20208;-69
2023/10/05 07:34:41;;;;;;;7.43;3.23;;;14.20;99.90;;;;;;5024929;28;20609;-69
2023/10/05 07:37:10;;;;;;;7.50;3.67;;;14.20;99.90;;;;;;5024983;28;20211;-70
2023/10/05 07:39:37;;;;;;;7.93;3.80;;;14.30;99.90;;;;;;5024941;28;20239;-69
2023/10/05 07:42:04;;;;;;;6.93;3.83;;;14.40;99.90;;;;;;5024295;28;20742;-69
2023/10/05 07:44:31;;;;;;;6.83;3.60;;;14.50;99.90;;;;;;5024820;28;20209;-69
2023/10/05 07:46:59;;;;;;;8.00;4.20;;;14.60;99.90;;;;;;5028237;28;20296;-69
2023/10/05 07:49:26;;;;;;;5.33;3.50;;;14.60;99.90;;;;;;5029134;28;20252;-69
2023/10/05 07:51:53;;;;;;;11.27;3.43;;;14.60;99.90;;;;;;5029061;28;20283;-69
2023/10/05 07:54:21;;;;;;;8.57;3.77;;;14.60;99.90;;;;;;5028774;28;20267;-69
2023/10/05 07:56:48;;;;;;;6.37;3.83;;;14.70;99.90;;;;;;5012186;28;20713;-69
2023/10/05 07:59:15;;;;;;;6.80;3.50;;;14.80;99.90;;;;;;5028840;28;20331;-70
2023/10/05 08:01:43;;;;;;;6.17;3.20;;;14.80;99.90;;;;;;5029590;28;20215;-70
2023/10/05 08:04:11;;;;;;;7.90;3.53;;;14.80;99.90;;;;;;5028844;28;20205;-69
2023/10/05 08:06:39;;;;;;;7.73;3.63;;;14.80;99.90;;;;;;5028767;28;20730;-69
2023/10/05 08:09:07;;;;;;;9.90;3.60;;;14.90;99.90;;;;;;5028817;28;20197;-69
2023/10/05 08:11:34;;;;;;;7.03;3.23;;;14.90;99.90;;;;;;5028627;28;20671;-69
2023/10/05 08:14:04;;;;;;;7.30;3.17;;;14.90;99.90;;;;;;5028587;28;20212;-69
2023/10/05 08:16:30;;;;;;;6.77;3.20;;;14.90;99.90;;;;;;5028892;28;20217;-70
2023/10/05 08:18:57;;;;;;;8.20;3.80;;;14.90;99.90;;;;;;5028124;28;20327;-70
2023/10/05 08:21:27;;;;;;;9.37;3.37;;;14.90;99.90;;;;;;5028704;28;20292;-70
2023/10/05 08:23:54;;;;;;;8.13;3.40;;;15.00;99.90;;;;;;5027739;28;20316;-70
2023/10/05 08:26:22;;;;;;;6.97;3.60;;;15.10;99.90;;;;;;5027304;28;20360;-70
2023/10/05 08:28:49;;;;;;;6.80;3.77;;;15.10;99.90;;;;;;5027698;28;20279;-70
2023/10/05 08:31:22;;;;;;;7.87;3.57;;;15.10;99.90;;;;;;5026202;28;20208;-70
2023/10/05 08:33:50;;;;;;;7.10;3.57;;;15.10;99.90;;;;;;5021648;28;20243;-70
2023/10/05 08:36:17;;;;;;;10.53;3.50;;;15.10;99.90;;;;;;5026953;28;20213;-70
2023/10/05 08:38:48;;;;;;;7.20;3.67;;;15.10;99.90;;;;;;5020193;28;20237;-70
2023/10/05 08:41:29;;;;;;;4.73;3.47;;;15.20;99.90;;;;;;5019426;28;20236;-69
2023/10/05 08:43:56;;;;;;;7.87;3.63;;;15.20;99.90;;;;;;5026649;28;20223;-70
2023/10/05 08:46:23;;;;;;;10.50;3.30;;;15.30;99.90;;;;;;5026381;28;20205;-70
2023/10/05 08:48:50;;;;;;;5.10;3.70;;;15.30;99.90;;;;;;5026228;28;20220;-70
2023/10/05 08:51:17;;;;;;;8.33;3.37;;;15.40;99.90;;;;;;5025998;28;20663;-70
2023/10/05 08:53:54;;;;;;;8.93;3.80;;;15.50;99.90;;;;;;5026497;28;20243;-69
2023/10/05 08:56:22;;;;;;;8.33;3.50;;;15.60;99.90;;;;;;5026079;28;20185;-70
2023/10/05 08:58:51;;;;;;;8.37;2.87;;;15.80;99.90;;;;;;5015824;28;20240;-70
2023/10/05 09:01:27;;;;;;;7.93;3.17;;;15.90;99.90;;;;;;5030346;28;20213;-70
2023/10/05 09:04:01;;;;;;;5.23;3.10;;;15.90;99.90;;;;;;5028062;28;20211;-70
2023/10/05 09:06:30;;;;;;;5.43;3.30;;;15.90;99.90;;;;;;5015970;28;20194;-70
2023/10/05 09:09:13;;;;;;;7.10;3.40;;;15.80;99.90;;;;;;5015694;28;20208;-70
2023/10/05 09:11:40;;;;;;;6.70;3.30;;;15.90;99.90;;;;;;5020011;28;20197;-70
2023/10/05 09:14:17;;;;;;;5.17;3.33;;;15.90;99.90;;;;;;5027883;28;20237;-70
2023/10/05 09:16:47;;;;;;;11.03;3.73;;;15.80;99.90;;;;;;5027923;28;20205;-70
2023/10/05 09:19:17;;;;;;;8.43;3.63;;;15.80;99.90;;;;;;5027193;28;20575;-70
2023/10/05 09:21:50;;;;;;;8.80;3.57;;;15.80;99.90;;;;;;5028037;28;20263;-70
2023/10/05 09:24:22;;;;;;;6.30;3.50;;;15.80;99.90;;;;;;5028035;28;20204;-67
2023/10/05 09:26:57;;;;;;;8.73;3.57;;;15.70;99.90;;;;;;5027534;28;20288;-66
2023/10/05 09:29:28;;;;;;;5.53;3.27;;;15.80;99.90;;;;;;5027330;28;20232;-66
2023/10/05 09:31:56;;;;;;;8.10;3.33;;;15.90;99.90;;;;;;5027521;28;20209;-65
2023/10/05 09:34:38;;;;;;;6.63;3.33;;;15.90;99.90;;;;;;5026682;28;20667;-65
2023/10/05 09:37:06;;;;;;;5.33;3.30;;;15.80;99.90;;;;;;5024370;28;20212;-65
2023/10/05 09:39:42;;;;;;;7.50;3.50;;;15.90;99.90;;;;;;5025633;28;20642;-64
2023/10/05 09:42:16;;;;;;;10.20;3.40;;;15.90;99.90;;;;;;5024434;28;20722;-64
2023/10/05 09:44:51;;;;;;;7.50;3.37;;;15.90;99.90;;;;;;5019410;28;20216;-64
2023/10/05 09:47:21;;;;;;;7.33;3.57;;;15.90;99.90;;;;;;5011512;28;20196;-65
2023/10/05 09:49:50;;;;;;;7.40;4.10;;;16.00;99.90;;;;;;5024008;28;20300;-64
2023/10/05 09:52:21;;;;;;;6.63;3.07;;;16.00;99.90;;;;;;5027218;28;20216;-64
2023/10/05 09:54:50;;;;;;;6.70;3.20;;;15.90;99.90;;;;;;5024077;28;20208;-64
2023/10/05 09:57:20;;;;;;;6.63;3.07;;;16.00;99.90;;;;;;5017719;28;20196;-64
2023/10/05 09:59:57;;;;;;;8.77;3.50;;;16.00;99.90;;;;;;5015331;28;20244;-65
2023/10/05 10:02:27;;;;;;;5.17;3.40;;;16.00;99.90;;;;;;5019501;28;20197;-65
2023/10/05 10:04:55;;;;;;;4.90;2.90;;;16.00;99.90;;;;;;5015263;28;20209;-65
2023/10/05 10:07:23;;;;;;;6.07;3.53;;;16.00;99.90;;;;;;5026265;28;20255;-64
2023/10/05 10:09:56;;;;;;;5.73;2.67;;;16.00;99.90;;;;;;5022782;28;20730;-64
2023/10/05 10:12:26;;;;;;;6.97;2.80;;;16.00;99.90;;;;;;5018520;28;20276;-65
2023/10/05 10:14:58;;;;;;;9.03;3.23;;;16.00;99.90;;;;;;5015949;28;20275;-65
2023/10/05 10:17:30;;;;;;;7.07;3.00;;;16.00;99.90;;;;;;5018094;28;20222;-64
2023/10/05 10:20:18;;;;;;;7.97;3.50;;;16.00;99.90;;;;;;5020925;28;20233;-65
2023/10/05 10:22:53;;;;;;;7.17;2.93;;;15.90;99.90;;;;;;5024938;28;20201;-64
2023/10/05 10:25:31;;;;;;;5.23;2.90;;;15.90;99.90;;;;;;5012433;28;20189;-64
2023/10/05 10:28:20;;;;;;;7.07;3.47;;;15.90;99.90;;;;;;5021014;28;20285;-64
2023/10/05 10:30:47;;;;;;;4.10;2.67;;;15.90;99.90;;;;;;5013576;28;20602;-63
2023/10/05 10:33:27;;;;;;;7.57;3.33;;;15.90;99.90;;;;;;5019731;28;20213;-64
2023/10/05 10:35:55;;;;;;;8.50;3.27;;;15.90;99.90;;;;;;5015109;28;20209;-65
2023/10/05 10:38:22;;;;;;;7.70;3.00;;;15.90;99.90;;;;;;5018971;28;20707;-65
2023/10/05 10:41:09;;;;;;;3.30;2.60;;;15.90;99.90;;;;;;5021375;28;20319;-64
2023/10/05 10:43:36;;;;;;;6.37;3.10;;;15.90;99.90;;;;;;5026509;28;20220;-64
2023/10/05 10:46:13;;;;;;;6.13;3.37;;;15.90;99.90;;;;;;5025729;28;20219;-71
2023/10/05 10:48:53;;;;;;;6.37;2.80;;;15.90;99.90;;;;;;5025873;28;20283;-63
2023/10/05 10:51:22;;;;;;;4.77;2.53;;;15.90;99.90;;;;;;5025727;28;20295;-65
2023/10/05 10:53:56;;;;;;;3.23;2.70;;;15.90;99.90;;;;;;5025689;28;20398;-65
2023/10/05 10:56:29;;;;;;;3.70;2.73;;;15.90;99.90;;;;;;5025301;28;20830;-64
2023/10/05 10:59:09;;;;;;;5.00;3.20;;;15.80;99.90;;;;;;5024272;28;20680;-66
2023/10/05 11:01:41;;;;;;;6.63;2.70;;;15.80;99.90;;;;;;5025671;28;20211;-65
2023/10/05 11:04:23;;;;;;;8.17;3.20;;;15.70;99.90;;;;;;5025534;28;20193;-65
2023/10/05 11:06:59;;;;;;;7.07;2.90;;;15.80;99.90;;;;;;5024613;28;20271;-65
2023/10/05 11:09:35;;;;;;;5.93;2.70;;;15.70;99.90;;;;;;5023744;28;20574;-64
2023/10/05 11:12:10;;;;;;;4.67;2.70;;;15.80;99.90;;;;;;5024259;28;20197;-65
2023/10/05 11:14:43;;;;;;;5.33;2.83;;;15.80;99.90;;;;;;5023915;28;20525;-66
2023/10/05 11:17:31;;;;;;;4.63;2.57;;;15.80;99.90;;;;;;5023781;28;20335;-66
2023/10/05 11:20:20;;;;;;;6.47;2.97;;;15.80;99.90;;;;;;5023672;28;20690;-65
2023/10/05 11:22:47;;;;;;;7.90;3.17;;;15.80;99.90;;;;;;5023630;28;20734;-65
2023/10/05 11:25:23;;;;;;;7.10;3.07;;;15.80;99.90;;;;;;5023533;28;20212;-65
2023/10/05 11:27:59;;;;;;;5.67;2.83;;;15.70;99.90;;;;;;5023923;28;20222;-65
2023/10/05 11:30:41;;;;;;;8.03;3.53;;;15.50;99.90;;;;;;5023767;28;20208;-65
2023/10/05 11:33:15;;;;;;;5.97;3.30;;;15.30;99.90;;;;;;5023959;28;20200;-65
2023/10/05 11:35:51;;;;;;;4.70;3.30;;;15.20;99.90;;;;;;5022962;28;20219;-65
2023/10/05 11:38:19;;;;;;;8.33;3.40;;;15.10;99.90;;;;;;5023487;28;20197;-65
2023/10/05 11:40:53;;;;;;;5.57;2.93;;;15.00;99.90;;;;;;5023290;28;20239;-65
2023/10/05 11:43:22;;;;;;;3.80;2.90;;;14.90;99.90;;;;;;5023624;28;20199;-64
2023/10/05 11:45:56;;;;;;;4.60;3.00;;;14.90;99.90;;;;;;5023169;28;20205;-65
2023/10/05 11:48:32;;;;;;;6.63;3.37;;;14.90;99.90;;;;;;5023505;28;20300;-65
2023/10/05 11:50:59;;;;;;;5.33;3.17;;;15.00;99.90;;;;;;5023799;28;20655;-65
2023/10/05 11:53:26;;;;;;;3.50;2.97;;;15.10;99.90;;;;;;5023496;28;20213;-66
2023/10/05 11:55:55;;;;;;;5.43;2.93;;;15.10;99.90;;;;;;5023273;28;20205;-66
2023/10/05 11:58:24;;;;;;;4.47;3.00;;;15.20;99.90;;;;;;5023621;28;20690;-66
2023/10/05 12:00:51;;;;;;;7.20;3.23;;;15.20;99.90;;;;;;5023602;28;20352;-64
2023/10/05 12:03:18;;;;;;;4.93;3.30;;;15.40;99.90;;;;;;5023685;28;20204;-64
2023/10/05 12:05:45;;;;;;;7.93;3.17;;;15.50;99.90;;;;;;5023516;28;20296;-65
2023/10/05 12:08:13;;;;;;;4.43;2.90;;;15.60;99.90;;;;;;5023349;28;20272;-63
2023/10/05 12:10:42;;;;;;;4.83;3.10;;;15.60;99.90;;;;;;5023118;28;20201;-64
2023/10/05 12:13:09;;;;;;;8.10;3.00;;;15.70;99.90;;;;;;5023046;28;20300;-64
2023/10/05 12:15:38;;;;;;;5.83;3.17;;;15.70;99.90;;;;;;5023533;28;20262;-64
2023/10/05 12:18:12;;;;;;;5.83;3.17;;;15.70;99.90;;;;;;5023149;28;20216;-65
2023/10/05 12:20:42;;;;;;;6.33;3.20;;;15.70;99.90;;;;;;5023570;28;21010;-64
2023/10/05 12:23:11;;;;;;;6.97;3.40;;;15.60;99.90;;;;;;5023330;28;20629;-64
2023/10/05 12:25:38;;;;;;;4.97;3.20;;;15.50;99.90;;;;;;5023300;28;20209;-64
2023/10/05 12:28:05;;;;;;;7.07;4.03;;;15.50;99.90;;;;;;5023793;28;20632;-64
2023/10/05 12:30:32;;;;;;;7.57;3.23;;;15.30;99.90;;;;;;5023394;28;20219;-65
2023/10/05 12:33:03;;;;;;;9.83;3.77;;;15.20;99.90;;;;;;5023980;28;20311;-64
2023/10/05 12:35:30;;;;;;;6.00;3.40;;;15.10;99.90;;;;;;5027060;28;20228;-65
2023/10/05 12:37:58;;;;;;;6.23;3.47;;;15.10;99.90;;;;;;5027202;28;20745;-65
2023/10/05 12:40:33;;;;;;;6.67;3.50;;;15.10;99.90;;;;;;5027254;28;20231;-65
2023/10/05 12:43:01;;;;;;;6.77;3.60;;;15.20;99.90;;;;;;5027131;28;20251;-65
2023/10/05 12:45:28;;;;;;;6.17;3.43;;;15.30;99.90;;;;;;5024571;28;20205;-65
2023/10/05 12:47:56;;;;;;;3.77;3.20;;;15.40;99.90;;;;;;5026893;28;20278;-65
2023/10/05 12:50:26;;;;;;;5.87;3.27;;;15.50;99.90;;;;;;5026819;28;20299;-65
2023/10/05 12:52:53;;;;;;;4.50;3.10;;;15.50;99.90;;;;;;5026793;28;20220;-65
2023/10/05 12:55:22;;;;;;;6.97;3.20;;;15.60;99.90;;;;;;5026251;28;20671;-65
2023/10/05 12:57:50;;;;;;;6.03;3.43;;;15.60;99.90;;;;;;5026461;28;20846;-65
2023/10/05 13:00:22;;;;;;;7.13;3.53;;;15.60;99.90;;;;;;5025131;28;20245;-65
2023/10/05 13:02:52;;;;;;;4.83;3.93;;;15.50;99.90;;;;;;5028702;28;20209;-65
2023/10/05 13:05:21;;;;;;;8.37;3.93;;;15.50;99.90;;;;;;5037670;28;20209;-65